Time;durP1;ratioP1;P1;durP2;ratioP2;P2;SDS_P1;SDS_P2;PMS_P1;PMS_P2;Temp;Humidity;BMP_temperature;BMP_pressure;BME280_temperature;BME280_humidity;BME280_pressure;Samples;Min_cycle;Max_cycle;Signal;HPM_P1;HPM_P2
2021/12/27 00:01:11;;;;;;;24.60;15.10;;;5.60;97.60;;;;;;20920636;28;20233;-62
2021/12/27 00:11:14;;;;;;;25.53;15.30;;;5.50;97.60;;;;;;20919299;28;20326;-62
2021/12/27 00:21:15;;;;;;;26.60;15.57;;;5.50;97.60;;;;;;20918724;28;20254;-64
2021/12/27 00:31:17;;;;;;;24.93;15.00;;;5.50;97.70;;;;;;20918060;28;20233;-62
2021/12/27 00:41:19;;;;;;;25.90;15.27;;;5.60;97.90;;;;;;20916882;28;20205;-67
2021/12/27 00:51:21;;;;;;;28.77;15.90;;;5.60;97.90;;;;;;20916034;28;20788;-62
2021/12/27 01:01:23;;;;;;;24.07;14.13;;;5.60;98.00;;;;;;20915371;28;20618;-63
2021/12/27 01:12:09;;;;;;;21.97;13.90;;;5.60;98.10;;;;;;20914726;28;20286;-67
2021/12/27 01:21:47;;;;;;;21.57;13.33;;;5.60;98.20;;;;;;20914089;28;20262;-67
2021/12/27 01:31:49;;;;;;;22.10;14.07;;;5.60;98.20;;;;;;20913372;28;20293;-67
2021/12/27 01:41:51;;;;;;;23.37;14.07;;;5.60;98.30;;;;;;20913163;28;20201;-66
2021/12/27 01:51:53;;;;;;;22.67;14.23;;;5.70;98.40;;;;;;20912106;28;20601;-61
2021/12/27 02:01:55;;;;;;;23.30;14.97;;;5.70;98.50;;;;;;20912180;28;20686;-62
2021/12/27 02:11:57;;;;;;;22.20;13.73;;;5.60;98.50;;;;;;20912865;28;20237;-63
2021/12/27 02:21:59;;;;;;;25.03;14.60;;;5.50;98.60;;;;;;20928051;28;20200;-62
2021/12/27 02:32:00;;;;;;;25.17;15.53;;;5.50;98.70;;;;;;20927350;28;20777;-61
2021/12/27 02:42:02;;;;;;;24.03;14.70;;;5.40;98.70;;;;;;20926694;28;20565;-62
2021/12/27 02:52:05;;;;;;;23.57;15.10;;;5.40;98.80;;;;;;20925432;28;20236;-66
2021/12/27 03:02:07;;;;;;;25.87;14.90;;;5.40;98.90;;;;;;20924988;28;20262;-67
2021/12/27 03:12:12;;;;;;;22.97;14.43;;;5.40;99.00;;;;;;20924502;28;20636;-64
2021/12/27 03:22:14;;;;;;;21.20;13.80;;;5.40;99.00;;;;;;20923103;28;20208;-62
2021/12/27 03:32:17;;;;;;;25.20;15.03;;;5.30;99.10;;;;;;20922366;28;20232;-62
2021/12/27 03:42:19;;;;;;;24.87;13.93;;;5.30;99.30;;;;;;20922030;28;20262;-67
2021/12/27 03:52:20;;;;;;;24.43;13.97;;;5.30;99.30;;;;;;20920859;28;20252;-67
2021/12/27 04:02:22;;;;;;;22.23;13.37;;;5.30;99.30;;;;;;20920351;28;20204;-62
2021/12/27 04:12:24;;;;;;;19.50;13.00;;;5.30;99.50;;;;;;20919661;28;20238;-62
2021/12/27 04:22:26;;;;;;;20.80;12.70;;;5.40;99.30;;;;;;20918719;28;20216;-62
2021/12/27 04:32:49;;;;;;;24.23;12.90;;;5.40;99.30;;;;;;20917608;28;20322;-62
2021/12/27 04:42:57;;;;;;;22.03;13.37;;;5.30;99.20;;;;;;20916450;28;20201;-67
2021/12/27 04:52:59;;;;;;;19.70;12.53;;;5.20;99.20;;;;;;20916035;28;20588;-66
2021/12/27 05:03:01;;;;;;;20.30;12.40;;;5.20;99.20;;;;;;20915539;28;20564;-67
2021/12/27 05:13:04;;;;;;;20.93;11.97;;;5.10;99.10;;;;;;20915107;28;20232;-61
2021/12/27 05:23:06;;;;;;;19.80;11.53;;;5.10;99.10;;;;;;20914030;28;20210;-62
2021/12/27 05:33:07;;;;;;;26.50;12.93;;;5.00;99.20;;;;;;20913542;28;20285;-62
2021/12/27 05:43:09;;;;;;;22.57;13.00;;;5.10;99.30;;;;;;20913298;28;20208;-62
2021/12/27 05:53:11;;;;;;;22.47;11.90;;;5.10;99.30;;;;;;20912184;28;20639;-62
2021/12/27 06:03:13;;;;;;;19.40;11.47;;;5.10;99.30;;;;;;20912371;28;20663;-66
2021/12/27 06:13:14;;;;;;;35.10;13.23;;;5.10;99.20;;;;;;20912313;28;20586;-67
2021/12/27 06:23:16;;;;;;;23.33;12.03;;;5.10;99.30;;;;;;20911565;28;20628;-61
2021/12/27 06:33:18;;;;;;;23.57;12.27;;;5.20;99.30;;;;;;20910821;28;20274;-62
2021/12/27 06:43:19;;;;;;;20.10;12.37;;;5.40;99.30;;;;;;20910829;28;20208;-63
2021/12/27 06:53:23;;;;;;;23.70;11.83;;;;;;;;;;20909801;28;20640;-61
2021/12/27 07:03:25;;;;;;;19.30;11.80;;;5.10;99.40;;;;;;20918963;28;20677;-63
2021/12/27 07:13:29;;;;;;;24.08;16.73;;;5.20;99.50;;;;;;20922059;28;20463;-66
2021/12/27 07:23:31;;;;;;;23.87;13.30;;;5.30;99.60;;;;;;20923174;28;20720;-63
2021/12/27 07:33:34;;;;;;;22.53;12.20;;;5.20;99.40;;;;;;20922464;28;20286;-62
2021/12/27 07:43:36;;;;;;;21.33;12.43;;;5.30;99.50;;;;;;20922314;28;20258;-62
2021/12/27 08:00:54;;;;;;;23.67;13.43;;;4.60;99.30;;;;;;21068320;28;20570;-62
2021/12/27 08:10:56;;;;;;;23.20;13.37;;;5.60;99.60;;;;;;21067738;28;20241;-61
2021/12/27 08:20:59;;;;;;;22.73;13.83;;;5.60;99.40;;;;;;21066405;28;20206;-67
2021/12/27 08:31:00;;;;;;;22.37;13.47;;;5.70;99.60;;;;;;21065729;28;20703;-62
2021/12/27 08:41:02;;;;;;;23.67;14.07;;;5.70;99.40;;;;;;21065518;28;20578;-63
2021/12/27 08:51:04;;;;;;;24.87;14.10;;;5.80;99.60;;;;;;21063764;28;20206;-62
2021/12/27 09:01:06;;;;;;;23.83;14.33;;;5.70;99.60;;;;;;21063407;28;20269;-61
2021/12/27 09:11:09;;;;;;;27.87;15.57;;;5.80;99.70;;;;;;21013415;28;20217;-63
2021/12/27 09:29:16;;;;;;;27.57;15.07;;;5.80;99.70;;;;;;21068214;27;20571;-66
2021/12/27 09:39:18;;;;;;;25.27;14.27;;;5.80;99.60;;;;;;21066988;28;20210;-62
2021/12/27 09:49:22;;;;;;;26.40;14.43;;;5.90;99.70;;;;;;21066477;28;20211;-63
2021/12/27 09:59:24;;;;;;;28.97;14.97;;;5.90;99.90;;;;;;21065985;28;20728;-63
2021/12/27 10:09:26;;;;;;;27.67;15.87;;;6.10;99.80;;;;;;21065000;28;20654;-64
2021/12/27 10:19:27;;;;;;;24.67;15.10;;;6.30;99.70;;;;;;21063894;28;20203;-65
2021/12/27 10:29:36;;;;;;;29.93;16.00;;;6.30;99.70;;;;;;21063752;28;20670;-63
2021/12/27 10:39:55;;;;;;;29.53;15.60;;;6.30;99.90;;;;;;21012534;28;20228;-64
2021/12/27 10:50:17;;;;;;;27.47;15.20;;;6.40;99.50;;;;;;21009127;28;20263;-63
2021/12/27 11:04:18;;;;;;;25.90;15.80;;;6.50;99.80;;;;;;21068341;27;21089;-62
2021/12/27 11:14:20;;;;;;;26.37;15.33;;;6.60;99.60;;;;;;21067440;28;20656;-62
2021/12/27 11:28:49;;;;;;;26.23;15.37;;;6.60;99.70;;;;;;21068325;28;20578;-64
2021/12/27 11:38:52;;;;;;;25.73;15.93;;;6.90;99.80;;;;;;21067180;28;20215;-66
2021/12/27 11:48:59;;;;;;;28.60;16.80;;;7.10;99.90;;;;;;21066550;28;20232;-65
2021/12/27 11:59:01;;;;;;;28.40;17.07;;;7.30;99.90;;;;;;21065895;28;20266;-67
2021/12/27 12:09:14;;;;;;;26.37;15.40;;;7.40;99.90;;;;;;21065012;28;20273;-66
2021/12/27 12:19:16;;;;;;;34.03;16.43;;;7.40;99.90;;;;;;21063839;28;20244;-63
2021/12/27 12:29:18;;;;;;;31.10;16.03;;;;;;;;;;21063796;28;20215;-62
2021/12/27 12:39:22;;;;;;;29.47;16.80;;;7.50;99.90;;;;;;21011456;28;20746;-62
2021/12/27 12:49:23;;;;;;;33.87;16.80;;;7.70;99.90;;;;;;21004608;28;20202;-62
2021/12/27 12:59:37;;;;;;;27.80;16.57;;;7.80;99.90;;;;;;21005384;28;20281;-61
2021/12/27 13:09:44;;;;;;;27.33;16.50;;;8.00;99.90;;;;;;21004958;28;20206;-62
2021/12/27 13:20:05;;;;;;;25.20;15.97;;;8.10;99.90;;;;;;21003468;28;20242;-66
2021/12/27 13:30:14;;;;;;;21.87;13.57;;;8.10;99.90;;;;;;21002531;28;20300;-67
2021/12/27 13:40:17;;;;;;;20.80;13.90;;;8.10;99.90;;;;;;21002146;28;20246;-62
2021/12/27 13:50:27;;;;;;;23.47;13.97;;;8.10;99.90;;;;;;20998603;28;20236;-67
2021/12/27 14:00:30;;;;;;;23.27;13.70;;;8.20;99.90;;;;;;20999991;28;20230;-66
2021/12/27 14:10:32;;;;;;;20.30;13.33;;;8.20;99.90;;;;;;20999821;28;20645;-66
2021/12/27 14:21:04;;;;;;;20.87;13.23;;;8.30;99.90;;;;;;21068040;28;21078;-66
2021/12/27 14:31:06;;;;;;;21.23;13.57;;;8.30;99.90;;;;;;21065974;28;20263;-66
2021/12/27 14:41:08;;;;;;;20.80;13.47;;;8.30;99.90;;;;;;21066795;28;20304;-65
2021/12/27 14:51:10;;;;;;;20.43;13.50;;;8.30;99.90;;;;;;21065603;28;20236;-66
2021/12/27 15:01:11;;;;;;;22.07;14.13;;;8.30;99.90;;;;;;21064886;28;20202;-62
2021/12/27 15:11:13;;;;;;;23.00;13.57;;;8.30;99.90;;;;;;21064092;28;20693;-63
2021/12/27 15:21:15;;;;;;;22.17;13.77;;;8.30;99.90;;;;;;21063433;28;20214;-63
2021/12/27 15:31:17;;;;;;;20.53;13.30;;;8.30;99.90;;;;;;21012174;28;20244;-64
2021/12/27 15:41:19;;;;;;;19.73;12.97;;;8.30;99.90;;;;;;21006372;28;20206;-63
2021/12/27 15:51:21;;;;;;;21.10;13.50;;;8.30;99.90;;;;;;21005348;28;20233;-64
2021/12/27 16:01:23;;;;;;;21.37;13.40;;;8.30;99.90;;;;;;21004734;28;20257;-68
2021/12/27 16:11:25;;;;;;;19.30;12.90;;;8.30;99.90;;;;;;21003664;28;20281;-63
2021/12/27 16:21:27;;;;;;;19.93;12.83;;;8.30;99.90;;;;;;21002947;28;20199;-63
2021/12/27 16:31:31;;;;;;;20.70;13.77;;;8.30;99.90;;;;;;21002051;28;20235;-64
2021/12/27 16:42:16;;;;;;;22.33;14.13;;;8.40;99.90;;;;;;21068336;27;20562;-63
2021/12/27 16:52:18;;;;;;;24.47;14.63;;;8.20;99.90;;;;;;21067309;28;20213;-62
2021/12/27 17:02:20;;;;;;;27.30;15.50;;;8.20;99.90;;;;;;21066568;28;20673;-61
2021/12/27 17:12:22;;;;;;;27.07;15.57;;;8.20;99.90;;;;;;21066019;28;20672;-67
2021/12/27 17:22:23;;;;;;;24.17;15.13;;;8.10;99.90;;;;;;21064779;28;20252;-63
2021/12/27 17:32:25;;;;;;;29.37;16.03;;;8.10;99.90;;;;;;21063698;28;20210;-61
2021/12/27 17:42:28;;;;;;;25.80;15.23;;;8.10;99.90;;;;;;21063644;28;20217;-61
2021/12/27 17:52:29;;;;;;;26.80;14.70;;;8.10;99.90;;;;;;21012812;28;20271;-66
2021/12/27 18:02:31;;;;;;;23.67;13.73;;;8.10;99.90;;;;;;21006030;28;20262;-67
2021/12/27 18:12:35;;;;;;;26.17;14.93;;;8.10;99.90;;;;;;21005435;28;20712;-68
2021/12/27 18:22:36;;;;;;;30.03;15.83;;;7.90;99.90;;;;;;21004519;28;20210;-64
2021/12/27 18:32:38;;;;;;;27.67;15.57;;;7.90;99.90;;;;;;21003585;28;20252;-63
2021/12/27 18:42:40;;;;;;;29.50;15.90;;;7.80;99.90;;;;;;21003257;28;20683;-63
2021/12/27 18:52:42;;;;;;;27.70;15.63;;;7.90;99.90;;;;;;21001984;28;20279;-62
2021/12/27 19:02:44;;;;;;;33.07;18.40;;;7.80;99.90;;;;;;21000561;28;20210;-65
2021/12/27 19:12:47;;;;;;;29.73;16.90;;;7.80;99.90;;;;;;21000751;28;20761;-68
2021/12/27 19:22:49;;;;;;;32.10;16.30;;;7.80;99.90;;;;;;20999483;28;20608;-67
2021/12/27 19:32:51;;;;;;;30.77;16.30;;;7.90;99.90;;;;;;20998624;28;20237;-68
2021/12/27 19:42:53;;;;;;;32.30;18.23;;;7.90;99.90;;;;;;20998535;28;20210;-63
2021/12/27 19:52:55;;;;;;;33.00;16.83;;;7.80;99.90;;;;;;20997406;28;20234;-62
2021/12/27 20:02:57;;;;;;;33.57;18.07;;;7.80;99.90;;;;;;20996706;28;20221;-62
2021/12/27 20:13:00;;;;;;;34.20;19.00;;;7.80;99.90;;;;;;20996396;28;20299;-61
2021/12/27 20:23:03;;;;;;;32.20;18.33;;;7.80;99.90;;;;;;20995590;28;20213;-63
2021/12/27 20:33:06;;;;;;;32.00;17.50;;;7.80;99.90;;;;;;20995070;28;20280;-61
2021/12/27 20:43:08;;;;;;;30.37;17.47;;;7.90;99.90;;;;;;20995296;28;20206;-62
2021/12/27 20:53:12;;;;;;;29.97;17.50;;;7.90;99.90;;;;;;20994567;28;20283;-62
2021/12/27 21:03:14;;;;;;;28.80;20.53;;;7.90;99.90;;;;;;20991113;28;20446;-62
2021/12/27 21:13:18;;;;;;;28.67;16.87;;;8.40;99.90;;;;;;20993923;28;20322;-61
2021/12/27 21:23:20;;;;;;;26.70;15.73;;;8.00;99.90;;;;;;21000612;28;20758;-66
2021/12/27 21:33:21;;;;;;;28.37;15.90;;;8.00;99.90;;;;;;21008071;28;20643;-64
2021/12/27 21:43:23;;;;;;;26.90;16.27;;;8.00;99.90;;;;;;21007879;28;20214;-61
2021/12/27 21:53:25;;;;;;;25.80;15.03;;;8.00;99.90;;;;;;21007194;28;20229;-62
2021/12/27 22:03:27;;;;;;;25.27;16.43;;;8.00;99.90;;;;;;21006166;28;20343;-61
2021/12/27 22:13:29;;;;;;;26.93;15.13;;;8.00;99.90;;;;;;21005294;28;20227;-64
2021/12/27 22:23:30;;;;;;;26.33;15.10;;;8.00;99.90;;;;;;21005278;28;20205;-65
2021/12/27 22:33:32;;;;;;;26.30;15.50;;;8.00;99.90;;;;;;21003460;28;20294;-65
2021/12/27 22:43:34;;;;;;;24.97;16.17;;;8.00;99.90;;;;;;21003014;28;20256;-62
2021/12/27 22:53:35;;;;;;;24.50;15.20;;;8.00;99.90;;;;;;21002640;28;20234;-61
2021/12/27 23:03:37;;;;;;;25.17;15.20;;;8.10;99.90;;;;;;21001650;28;20212;-62
2021/12/27 23:13:40;;;;;;;25.50;15.83;;;8.10;99.90;;;;;;21000820;28;20245;-61
2021/12/27 23:23:41;;;;;;;25.23;14.93;;;8.10;99.90;;;;;;21000155;28;20665;-62
2021/12/27 23:33:47;;;;;;;24.27;15.27;;;8.10;99.90;;;;;;20998660;28;20655;-61
2021/12/27 23:43:49;;;;;;;23.83;15.47;;;8.20;99.90;;;;;;20997775;28;20256;-62
2021/12/27 23:53:50;;;;;;;22.73;15.07;;;9.00;99.90;;;;;;20997667;28;20241;-61
